METAR Data
IDs: Format: Raw Decoded Include TAF

Data at: 0912 UTC 20 Sep 2018

KD55 200855Z AUTO 07006KT 10SM CLR 05/05 A3015 RMK AO2
KD55 200835Z AUTO 07008KT 10SM CLR 05/05 A3015 RMK AO2
KD55 200815Z AUTO 06007KT 10SM CLR 05/05 A3016 RMK AO2
KD55 200755Z AUTO 06007KT 10SM CLR 05/05 A3015 RMK AO2
KD55 200735Z AUTO 06008KT 10SM CLR 06/06 A3015 RMK AO2
KD55 200715Z AUTO 05008KT 10SM CLR 05/05 A3016 RMK AO2
KD55 200655Z AUTO 05007KT 10SM CLR 05/05 A3016 RMK AO2
KD55 200635Z AUTO 06007KT 10SM CLR 05/05 A3016 RMK AO2
KD55 200615Z AUTO 05006KT 10SM CLR 05/05 A3017 RMK AO2
KD55 200555Z AUTO 07005KT 10SM CLR 05/05 A3018 RMK AO2
KD55 200535Z AUTO 06005KT 10SM CLR 06/06 A3018 RMK AO2
KD55 200515Z AUTO 06005KT 10SM CLR 06/06 A3017 RMK AO2
KD55 200455Z AUTO 07007KT 10SM CLR 06/04 A3017 RMK AO2
KD55 200435Z AUTO 05007KT 10SM SCT095 07/04 A3017 RMK AO2
KD55 200415Z AUTO 04009KT 10SM OVC090 08/03 A3018 RMK AO2
KD55 200355Z AUTO 03007KT 10SM BKN095 07/03 A3019 RMK AO2
KD55 200335Z AUTO 03006KT 10SM CLR 07/03 A3019 RMK AO2
KD55 200315Z AUTO 03007KT 10SM CLR 07/03 A3019 RMK AO2
KD55 200255Z AUTO 03006KT 10SM FEW095 07/03 A3019 RMK AO2
KD55 200235Z AUTO 03007KT 10SM SCT100 08/03 A3019 RMK AO2
KD55 200215Z AUTO 03008KT 10SM CLR 08/03 A3019 RMK AO2
KD55 200155Z AUTO 03007KT 10SM CLR 08/03 A3018 RMK AO2
KD55 192215Z AUTO 03008KT 10SM CLR 14/03 A3014 RMK AO2
KD55 192155Z AUTO 01010KT 10SM CLR 14/03 A3013 RMK AO2
KD55 192135Z AUTO 36011KT 10SM CLR 15/04 A3014 RMK AO2
KD55 192115Z AUTO 01010KT 10SM CLR 15/04 A3014 RMK AO2
KD55 192055Z AUTO 03011KT 10SM CLR 15/04 A3013 RMK AO2
KD55 192035Z AUTO 01007G12KT 10SM CLR 15/04 A3014 RMK AO2
KD55 192015Z AUTO 04008G14KT 10SM CLR 15/04 A3014 RMK AO2
KD55 191955Z AUTO 02010KT 10SM CLR 15/04 A3014 RMK AO2
KD55 191935Z AUTO 36009KT 340V040 10SM CLR 15/05 A3014 RMK AO2
KD55 191915Z AUTO 02009KT 10SM CLR 14/04 A3014 RMK AO2
KD55 191855Z AUTO 03008G13KT 10SM CLR 14/05 A3015 RMK AO2
KD55 191835Z AUTO 01010G15KT 10SM CLR 14/05 A3015 RMK AO2
KD55 191815Z AUTO 36011KT 10SM FEW110 14/05 A3016 RMK AO2
KD55 191755Z AUTO 36008G14KT 10SM SCT110 14/06 A3017 RMK AO2
KD55 191735Z AUTO 36008KT 10SM SCT110 13/06 A3017 RMK AO2
KD55 191715Z AUTO 03008KT 10SM BKN110 12/06 A3017 RMK AO2
KD55 191655Z AUTO 02011KT 10SM BKN110 13/06 A3017 RMK AO2
KD55 191635Z AUTO 02008KT 10SM OVC100 11/09 A3018 RMK AO2
KD55 191615Z AUTO 03006KT 10SM BKN095 10/09 A3018 RMK AO2
KD55 191555Z AUTO 04009KT 10SM SCT100 BKN110 10/08 A3018 RMK AO2
KD55 191535Z AUTO 04007KT 10SM SCT014 SCT041 BKN110 09/08 A3018 RMK AO2
KD55 191515Z AUTO 02010KT 10SM OVC013 08/08 A3017 RMK AO2
KD55 191455Z AUTO 02010KT 10SM BKN010 OVC013 08/08 A3017 RMK AO2
KD55 191435Z AUTO 04007KT 10SM OVC009 08/08 A3017 RMK AO2
KD55 191415Z AUTO 04010KT 10SM OVC008 08/08 A3016 RMK AO2
KD55 191355Z AUTO 04008KT 10SM OVC007 07/07 A3016 RMK AO2
KD55 191335Z AUTO 01009KT 10SM OVC007 07/07 A3015 RMK AO2
KD55 191315Z AUTO 02008KT 10SM OVC007 07/07 A3014 RMK AO2
KD55 191255Z AUTO 02011KT 10SM OVC007 07/07 A3013 RMK AO2
KD55 191235Z AUTO 02011KT 10SM OVC006 07/07 A3012 RMK AO2
KD55 191215Z AUTO 02009KT 10SM OVC006 07/07 A3012 RMK AO2
KD55 191155Z AUTO 03011KT 10SM OVC006 07/07 A3011 RMK AO2
KD55 191135Z AUTO 02010KT 10SM OVC006 08/08 A3012 RMK AO2
KD55 191115Z AUTO 02009KT 10SM OVC005 08/08 A3011 RMK AO2
KD55 191055Z AUTO 04008KT 10SM OVC005 08/08 A3011 RMK AO2
KD55 191035Z AUTO 02009KT 10SM OVC005 08/08 A3011 RMK AO2
KD55 191015Z AUTO 02009KT 10SM OVC006 08/08 A3010 RMK AO2
KD55 190955Z AUTO 02008KT 10SM SCT006 OVC012 08/08 A3011 RMK AO2
KD55 190935Z AUTO 03007KT 10SM BKN006 OVC012 08/08 A3011 RMK AO2
KD55 190915Z AUTO 03008KT 10SM BKN006 OVC014 08/08 A3011 RMK AO2
KD55 190855Z AUTO 02008KT 10SM BKN007 OVC012 08/08 A3011 RMK AO2
KD55 190835Z AUTO 01009KT 10SM BKN007 OVC010 08/08 A3010 RMK AO2
KD55 190815Z AUTO 02010KT 10SM OVC007 08/08 A3010 RMK AO2
KD55 190755Z AUTO 01009G15KT 10SM OVC007 08/08 A3010 RMK AO2
KD55 190735Z AUTO 01009KT 10SM OVC007 08/08 A3011 RMK AO2
KD55 190715Z AUTO 01008KT 10SM SCT006 BKN120 07/07 A3010 RMK AO2
KD55 190655Z AUTO 02009KT 10SM BKN120 07/07 A3010 RMK AO2
KD55 190635Z AUTO 01008KT 10SM SCT120 07/07 A3010 RMK AO2
KD55 190615Z AUTO 01008KT 10SM FEW050 SCT120 08/08 A3009 RMK AO2
KD55 190555Z AUTO 01009KT 10SM SCT050 08/08 A3009 RMK AO2
KD55 190535Z AUTO 02008KT 10SM CLR 08/08 A3009 RMK AO2
KD55 190515Z AUTO 04007KT 10SM CLR 09/09 A3009 RMK AO2
KD55 190455Z AUTO 02007KT 10SM CLR 09/09 A3009 RMK AO2
KD55 190435Z AUTO 03008KT 10SM CLR 09/09 A3009 RMK AO2
KD55 190415Z AUTO 36006KT 10SM CLR 09/09 A3008 RMK AO2
KD55 190355Z AUTO 34006KT 10SM CLR 08/08 A3008 RMK AO2
KD55 190335Z AUTO 35003KT 10SM CLR 08/08 A3007 RMK AO2
KD55 190315Z AUTO 00000KT 10SM CLR 08/08 A3007 RMK AO2
KD55 190255Z AUTO 00000KT 10SM CLR 09/09 A3006 RMK AO2
KD55 190235Z AUTO 00000KT 10SM CLR 10/10 A3005 RMK AO2
KD55 190215Z AUTO 09006KT 10SM CLR 11/07 A3005 RMK AO2
KD55 190155Z AUTO 09005KT 9SM CLR 11/07 A3004 RMK AO2
KD55 190135Z AUTO 08005KT 10SM CLR 12/07 A3004 RMK AO2
KD55 190115Z AUTO 09006KT 10SM CLR 12/07 A3004 RMK AO2
KD55 190055Z AUTO 05005KT 7SM CLR 13/08 A3003 RMK AO2
KD55 190035Z AUTO 08007KT 10SM CLR 15/07 A3003 RMK AO2
KD55 190015Z AUTO 06008KT 10SM CLR 16/07 A3002 RMK AO2
KD55 182355Z AUTO 00000KT 10SM CLR 18/07 A3001 RMK AO2
KD55 182335Z AUTO 03004KT 10SM CLR 17/06 A3001 RMK AO2
KD55 182315Z AUTO 36006KT 10SM FEW050 FEW055 18/07 A3002 RMK AO2
KD55 182255Z AUTO 35007KT 10SM SCT050 BKN055 19/07 A3002 RMK AO2
KD55 182235Z AUTO 00000KT 10SM FEW050 FEW060 19/06 A3003 RMK AO2
KD55 182215Z AUTO 00000KT 10SM SCT060 18/07 A3004 RMK AO2
KD55 182155Z AUTO 33006KT 10SM SCT050 BKN060 20/07 A3004 RMK AO2
KD55 182135Z AUTO VRB03KT 10SM SCT050 BKN055 20/06 A3004 RMK AO2
KD55 182115Z AUTO 00000KT 10SM CLR 18/06 A3005 RMK AO2